Time;durP1;ratioP1;P1;durP2;ratioP2;P2;SDS_P1;SDS_P2;PMS_P1;PMS_P2;Temp;Humidity;BMP_temperature;BMP_pressure;BME280_temperature;BME280_humidity;BME280_pressure;Samples;Min_cycle;Max_cycle;Signal;HPM_P1;HPM_P2
2021/01/06 15:06:09;;;;;;;5.20;1.83;;;22.10;50.90;;;;;;7030604;27;20626;-54
2021/01/06 15:09:55;;;;;;;3.27;1.77;;;21.90;47.90;;;;;;7017209;28;20679;-55
2021/01/06 15:13:39;;;;;;;3.97;1.50;;;22.00;48.00;;;;;;7010332;28;20214;-60
2021/01/06 15:17:25;;;;;;;4.07;1.77;;;22.10;48.20;;;;;;7008640;28;20296;-60
2021/01/06 15:21:18;;;;;;;2.17;1.43;;;22.10;48.00;;;;;;7013982;28;20622;-62
2021/01/06 15:25:10;;;;;;;3.43;1.60;;;22.00;47.90;;;;;;7005322;28;20306;-60
2021/01/06 15:28:57;;;;;;;3.63;1.97;;;22.00;48.00;;;;;;7010531;28;20212;-62
2021/01/06 15:32:51;;;;;;;2.87;1.63;;;22.10;48.00;;;;;;7017738;28;20200;-62
2021/01/06 15:36:37;;;;;;;3.23;1.70;;;22.00;48.00;;;;;;7004032;28;20690;-60
2021/01/06 15:40:26;;;;;;;3.20;1.37;;;22.00;48.00;;;;;;7013429;28;20452;-57
2021/01/06 15:44:15;;;;;;;2.27;1.30;;;22.00;47.90;;;;;;7003648;28;20303;-58
2021/01/06 15:48:12;;;;;;;2.77;1.50;;;22.00;48.40;;;;;;7009812;28;20286;-63
2021/01/06 15:51:56;;;;;;;3.23;1.33;;;21.90;48.10;;;;;;7004367;28;20197;-59
2021/01/06 15:55:38;;;;;;;3.03;1.50;;;22.00;48.30;;;;;;7007804;28;20706;-63
2021/01/06 15:59:23;;;;;;;2.67;1.43;;;22.00;48.20;;;;;;7001749;28;20223;-58
2021/01/06 16:03:05;;;;;;;2.67;1.53;;;22.00;48.30;;;;;;7015982;28;20257;-58
2021/01/06 16:06:50;;;;;;;2.23;1.30;;;22.00;48.70;;;;;;7009288;28;20294;-60
2021/01/06 16:10:35;;;;;;;5.63;1.83;;;21.90;48.30;;;;;;7010597;28;20188;-54
2021/01/06 16:14:20;;;;;;;3.03;1.67;;;21.80;48.50;;;;;;7013229;28;20215;-51
2021/01/06 16:18:05;;;;;;;3.83;1.83;;;21.70;48.50;;;;;;6993427;28;20326;-53
2021/01/06 16:21:47;;;;;;;4.33;1.43;;;21.70;48.50;;;;;;6995764;28;20297;-54
2021/01/06 16:25:34;;;;;;;3.00;1.50;;;21.70;48.70;;;;;;6987912;28;20626;-55
2021/01/06 16:29:24;;;;;;;3.53;1.70;;;21.70;48.70;;;;;;6992807;28;20746;-54
2021/01/06 16:33:16;;;;;;;2.43;1.37;;;21.70;48.70;;;;;;6975363;28;20235;-54
2021/01/06 16:37:03;;;;;;;2.93;1.50;;;21.70;48.80;;;;;;6977939;28;20303;-50
2021/01/06 16:40:48;;;;;;;2.70;1.57;;;21.70;48.90;;;;;;6983266;28;20189;-52
2021/01/06 16:44:32;;;;;;;2.40;1.43;;;21.60;49.30;;;;;;6986251;28;20641;-53
2021/01/06 16:48:22;;;;;;;3.20;1.70;;;21.60;48.90;;;;;;6976227;28;20652;-53
2021/01/06 16:52:16;;;;;;;2.90;1.60;;;21.60;48.90;;;;;;6996400;28;20250;-53
2021/01/06 16:56:14;;;;;;;2.83;1.13;;;21.60;49.20;;;;;;6994525;28;20196;-51
2021/01/06 16:59:57;;;;;;;2.63;1.60;;;21.60;49.00;;;;;;6997843;28;20208;-54
2021/01/06 17:03:42;;;;;;;1.63;1.20;;;21.60;49.00;;;;;;6994226;28;20216;-58
2021/01/06 17:07:35;;;;;;;2.77;1.60;;;21.60;49.00;;;;;;6985257;28;20667;-59
2021/01/06 17:11:18;;;;;;;5.63;1.67;;;21.60;49.00;;;;;;6984701;28;20541;-54
2021/01/06 17:15:00;;;;;;;1.73;1.10;;;21.60;49.00;;;;;;6986237;28;20205;-53
2021/01/06 17:18:45;;;;;;;2.60;1.30;;;21.70;49.00;;;;;;6986726;28;20291;-52
2021/01/06 17:22:30;;;;;;;1.97;1.10;;;21.60;49.00;;;;;;6983369;28;20192;-53
2021/01/06 17:26:17;;;;;;;3.10;1.33;;;21.50;49.10;;;;;;6993397;28;20295;-53
2021/01/06 17:30:06;;;;;;;1.93;1.33;;;21.60;49.30;;;;;;6988221;28;20201;-59
2021/01/06 17:33:48;;;;;;;3.57;1.30;;;21.50;49.20;;;;;;6995057;28;20664;-53
2021/01/06 17:37:48;;;;;;;1.93;1.23;;;21.50;49.80;;;;;;6989773;28;20299;-55
2021/01/06 17:41:37;;;;;;;1.67;1.20;;;21.50;49.20;;;;;;6981363;28;20287;-50
2021/01/06 17:45:19;;;;;;;2.13;1.20;;;21.60;49.20;;;;;;6989175;28;20641;-53
2021/01/06 17:49:02;;;;;;;2.80;1.40;;;21.60;49.30;;;;;;6992259;28;20295;-54
2021/01/06 17:52:45;;;;;;;4.87;1.43;;;21.40;49.10;;;;;;6984522;28;20700;-53
2021/01/06 17:56:29;;;;;;;1.60;1.37;;;21.40;48.50;;;;;;6989481;28;20213;-53
2021/01/06 18:00:13;;;;;;;3.07;1.47;;;21.40;48.40;;;;;;6989169;28;20576;-57
2021/01/06 18:03:59;;;;;;;2.63;1.70;;;21.40;48.70;;;;;;6992675;28;20248;-53
2021/01/06 18:07:41;;;;;;;5.43;1.93;;;21.40;48.80;;;;;;6992978;28;20288;-49
2021/01/06 18:11:28;;;;;;;3.00;1.80;;;21.40;48.40;;;;;;6967820;28;20201;-52
2021/01/06 18:15:22;;;;;;;5.27;1.67;;;21.40;48.40;;;;;;6968712;28;20676;-60
2021/01/06 18:19:18;;;;;;;2.33;1.50;;;21.40;48.50;;;;;;6971123;28;20683;-60
2021/01/06 18:23:00;;;;;;;2.87;1.33;;;21.40;48.60;;;;;;6992867;28;20235;-58
2021/01/06 18:27:01;;;;;;;5.27;1.77;;;21.40;48.50;;;;;;6981196;28;20217;-58
2021/01/06 18:30:43;;;;;;;2.10;1.30;;;21.40;48.40;;;;;;6975695;28;20536;-55
2021/01/06 18:34:26;;;;;;;2.37;1.30;;;21.40;48.60;;;;;;6974808;28;20239;-56
2021/01/06 18:38:08;;;;;;;5.33;1.70;;;21.40;48.90;;;;;;6993195;28;20227;-57
2021/01/06 18:41:50;;;;;;;3.80;1.80;;;21.40;49.40;;;;;;6989869;28;20196;-57
2021/01/06 18:45:33;;;;;;;2.47;1.40;;;21.40;49.20;;;;;;6983295;28;20560;-58
2021/01/06 18:49:17;;;;;;;4.40;1.50;;;21.40;49.00;;;;;;6982919;28;20197;-55
2021/01/06 18:53:13;;;;;;;2.07;1.50;;;21.30;48.20;;;;;;6982712;28;20196;-55
2021/01/06 18:57:08;;;;;;;1.90;1.20;;;21.30;48.90;;;;;;6990700;28;20291;-57
2021/01/06 19:00:49;;;;;;;2.07;1.27;;;21.30;48.70;;;;;;6991367;28;20682;-53
2021/01/06 19:04:31;;;;;;;2.13;1.23;;;21.30;49.10;;;;;;6986306;28;20769;-54
2021/01/06 19:08:23;;;;;;;2.53;1.50;;;21.30;49.10;;;;;;6986143;28;20208;-56
2021/01/06 19:12:09;;;;;;;2.87;1.17;;;21.30;49.20;;;;;;6985032;28;20196;-55
2021/01/06 19:15:51;;;;;;;1.90;1.10;;;21.20;49.10;;;;;;6987890;28;20609;-56
2021/01/06 19:19:33;;;;;;;1.10;1.00;;;21.30;49.30;;;;;;6981008;28;20590;-54
2021/01/06 19:23:15;;;;;;;1.37;0.97;;;21.20;49.20;;;;;;6989073;28;20733;-56
2021/01/06 19:27:07;;;;;;;1.37;1.10;;;21.30;49.30;;;;;;6987717;28;20671;-57
2021/01/06 19:30:50;;;;;;;1.77;1.40;;;21.20;49.30;;;;;;6993742;28;20622;-57
2021/01/06 19:34:46;;;;;;;1.30;0.90;;;21.20;49.30;;;;;;6990510;28;20272;-54
2021/01/06 19:38:28;;;;;;;1.40;0.90;;;21.30;50.20;;;;;;6992449;28;20212;-58
2021/01/06 19:42:10;;;;;;;1.17;1.07;;;21.30;49.80;;;;;;6992114;28;20277;-60
2021/01/06 19:45:52;;;;;;;1.80;0.93;;;21.20;50.30;;;;;;6988216;28;20300;-59
2021/01/06 19:49:40;;;;;;;3.60;1.27;;;21.30;50.20;;;;;;6980347;28;20244;-59
2021/01/06 19:53:22;;;;;;;2.53;1.00;;;21.30;50.00;;;;;;6972282;28;20329;-56
2021/01/06 19:57:15;;;;;;;1.77;0.90;;;21.40;50.80;;;;;;6988048;28;20286;-56
2021/01/06 20:00:57;;;;;;;6.10;1.17;;;21.40;50.40;;;;;;6982454;28;20208;-52
2021/01/06 20:04:39;;;;;;;3.50;1.10;;;21.40;50.60;;;;;;6991077;28;20311;-59
2021/01/06 20:08:21;;;;;;;2.70;1.40;;;21.50;47.60;;;;;;6995775;28;20299;-54
2021/01/06 20:12:03;;;;;;;4.83;1.40;;;21.60;47.70;;;;;;6977567;28;20284;-56
2021/01/06 20:15:46;;;;;;;5.77;1.00;;;21.60;48.70;;;;;;6996376;28;20231;-53
2021/01/06 20:19:28;;;;;;;4.97;1.10;;;21.70;49.10;;;;;;6985453;28;20734;-55
2021/01/06 20:23:09;;;;;;;3.03;0.90;;;21.70;48.40;;;;;;7005690;28;20236;-57
2021/01/06 20:26:55;;;;;;;1.60;0.90;;;21.80;48.30;;;;;;6984461;28;20654;-52
2021/01/06 20:30:37;;;;;;;1.80;1.10;;;21.80;47.90;;;;;;6985742;28;20192;-55
2021/01/06 20:34:19;;;;;;;2.10;0.80;;;21.80;47.90;;;;;;6997047;28;20219;-55
2021/01/06 20:38:01;;;;;;;3.07;0.80;;;21.80;48.30;;;;;;6984820;28;20345;-54
2021/01/06 20:41:43;;;;;;;1.90;0.80;;;21.80;47.80;;;;;;6980397;28;20197;-54
2021/01/06 20:45:25;;;;;;;1.93;0.70;;;21.80;47.90;;;;;;6980316;28;20248;-51
2021/01/06 20:49:07;;;;;;;1.07;0.70;;;21.80;47.20;;;;;;6986798;28;20330;-54
2021/01/06 20:52:50;;;;;;;1.57;0.80;;;21.90;47.50;;;;;;6988870;28;20264;-58
2021/01/06 20:56:31;;;;;;;0.77;0.60;;;21.90;47.80;;;;;;7006820;28;20215;-59
2021/01/06 21:00:14;;;;;;;0.80;0.80;;;22.00;47.40;;;;;;6995717;28;20200;-56
2021/01/06 21:03:57;;;;;;;0.73;0.70;;;22.00;47.40;;;;;;6987814;28;20758;-57
2021/01/06 21:07:39;;;;;;;1.30;0.70;;;22.00;47.40;;;;;;7000634;28;20215;-60
2021/01/06 21:11:22;;;;;;;2.13;0.77;;;22.00;47.60;;;;;;6992279;28;20276;-55
2021/01/06 21:15:05;;;;;;;3.63;0.67;;;21.90;47.80;;;;;;6996207;28;20275;-54
2021/01/06 21:18:46;;;;;;;0.70;0.70;;;21.80;48.00;;;;;;6996431;28;20319;-57
2021/01/06 21:22:29;;;;;;;1.37;0.70;;;21.70;48.20;;;;;;6996084;28;20746;-57
2021/01/06 21:26:11;;;;;;;0.77;0.70;;;21.70;48.30;;;;;;6996756;28;20224;-58
2021/01/06 21:29:53;;;;;;;1.17;0.57;;;21.70;48.50;;;;;;6989110;28;20322;-60
2021/01/06 21:33:35;;;;;;;0.60;0.60;;;21.70;48.50;;;;;;6996427;28;20571;-54
2021/01/06 21:37:16;;;;;;;1.17;0.60;;;21.60;48.60;;;;;;6982008;28;20213;-57
2021/01/06 21:40:58;;;;;;;2.50;0.60;;;21.60;48.60;;;;;;6995318;28;20220;-56
2021/01/06 21:44:40;;;;;;;2.07;0.70;;;21.60;48.80;;;;;;6996134;28;20224;-57
2021/01/06 21:48:23;;;;;;;2.27;0.67;;;21.50;48.80;;;;;;6992261;28;20353;-59
2021/01/06 21:52:05;;;;;;;0.70;0.57;;;21.50;48.90;;;;;;6995642;28;20315;-56
2021/01/06 21:55:47;;;;;;;0.70;0.57;;;21.40;49.00;;;;;;6996101;28;20771;-57
2021/01/06 21:59:28;;;;;;;0.80;0.60;;;21.50;49.10;;;;;;6982466;28;20686;-56
2021/01/06 22:03:10;;;;;;;0.63;0.50;;;21.40;49.10;;;;;;6993865;28;20682;-56
2021/01/06 22:06:57;;;;;;;0.63;0.53;;;21.40;49.10;;;;;;6995544;28;20303;-55
2021/01/06 22:10:39;;;;;;;0.60;0.60;;;21.40;49.10;;;;;;6996219;28;20214;-59
2021/01/06 22:14:21;;;;;;;1.77;0.60;;;21.40;49.20;;;;;;6994872;28;20619;-56
2021/01/06 22:18:04;;;;;;;0.60;0.60;;;21.30;49.20;;;;;;6991418;28;20295;-57
2021/01/06 22:21:46;;;;;;;0.93;0.50;;;21.30;49.20;;;;;;6995046;28;20193;-57
2021/01/06 22:25:28;;;;;;;0.50;0.50;;;21.30;49.30;;;;;;6980821;28;20292;-58
2021/01/06 22:29:10;;;;;;;1.10;0.53;;;21.30;49.30;;;;;;6994829;28;20201;-57
2021/01/06 22:32:52;;;;;;;0.50;0.50;;;21.30;49.40;;;;;;6987569;28;20295;-55
2021/01/06 22:36:33;;;;;;;1.43;0.57;;;21.30;49.50;;;;;;6994202;28;20363;-59
2021/01/06 22:40:15;;;;;;;0.83;0.50;;;21.30;49.50;;;;;;6993535;28;20232;-55
2021/01/06 22:43:58;;;;;;;0.63;0.50;;;21.30;49.50;;;;;;6994552;28;20251;-58
2021/01/06 22:47:39;;;;;;;0.50;0.50;;;21.20;49.50;;;;;;6981813;28;20298;-58
2021/01/06 22:51:21;;;;;;;1.57;0.70;;;21.30;49.50;;;;;;6988662;28;20279;-56
2021/01/06 22:55:03;;;;;;;0.50;0.50;;;21.20;49.50;;;;;;6993846;28;20189;-58
2021/01/06 22:58:45;;;;;;;1.07;0.60;;;21.20;49.50;;;;;;6995251;28;20747;-58
2021/01/06 23:02:27;;;;;;;0.33;0.33;;;21.20;49.60;;;;;;6994003;28;20192;-57
2021/01/06 23:06:09;;;;;;;0.40;0.40;;;21.20;49.50;;;;;;6992102;28;20314;-56
2021/01/06 23:09:51;;;;;;;0.50;0.40;;;21.20;49.60;;;;;;6993512;28;20697;-56
2021/01/06 23:13:32;;;;;;;0.57;0.57;;;21.20;49.60;;;;;;6994135;28;20767;-57
2021/01/06 23:17:14;;;;;;;0.47;0.47;;;21.20;49.60;;;;;;6977904;28;20251;-56
2021/01/06 23:20:56;;;;;;;0.60;0.40;;;21.20;49.60;;;;;;6993928;28;20204;-56
2021/01/06 23:24:38;;;;;;;0.60;0.50;;;21.20;49.70;;;;;;6993467;28;20682;-56
2021/01/06 23:28:20;;;;;;;0.63;0.50;;;21.10;49.60;;;;;;6998738;28;20303;-56
2021/01/06 23:32:02;;;;;;;0.57;0.43;;;21.10;49.60;;;;;;6993194;28;20275;-58
2021/01/06 23:35:43;;;;;;;0.80;0.50;;;21.10;49.60;;;;;;6999043;28;20583;-59
2021/01/06 23:39:26;;;;;;;0.40;0.40;;;21.20;49.70;;;;;;6988233;28;20307;-59
2021/01/06 23:43:07;;;;;;;0.53;0.53;;;21.10;49.60;;;;;;6999175;28;20346;-59
2021/01/06 23:46:49;;;;;;;1.43;0.40;;;21.10;49.70;;;;;;6998310;28;20295;-59
2021/01/06 23:50:31;;;;;;;0.40;0.40;;;21.10;49.70;;;;;;6998857;28;20223;-59
2021/01/06 23:54:12;;;;;;;0.70;0.40;;;21.10;49.70;;;;;;6997424;28;20299;-60
2021/01/06 23:57:55;;;;;;;0.30;0.30;;;21.10;49.70;;;;;;6987946;28;20220;-60
